Time;durP1;ratioP1;P1;durP2;ratioP2;P2;SDS_P1;SDS_P2;PMS_P1;PMS_P2;Temp;Humidity;BMP_temperature;BMP_pressure;BME280_temperature;BME280_humidity;BME280_pressure;Samples;Min_cycle;Max_cycle;Signal;HPM_P1;HPM_P2
2023/07/16 00:03:14;;;;;;;10.60;8.40;;;;;;;;;;8233401;28;20062;-93
2023/07/16 00:07:19;;;;;;;11.52;8.10;;;;;;;;;;8233993;28;20058;-92
2023/07/16 03:11:39;;;;;;;12.10;10.57;;;;;;;;;;8714780;23;20043;-85
2023/07/16 03:15:43;;;;;;;14.77;12.35;;;;;;;;;;8227296;28;20463;-93
2023/07/16 03:19:48;;;;;;;13.48;11.05;;;;;;;;;;8214123;28;20066;-94
2023/07/16 03:23:51;;;;;;;12.73;10.55;;;;;;;;;;8208895;28;20046;-94
2023/07/16 03:28:03;;;;;;;15.52;10.70;;;;;;;;;;8219112;28;20062;-94
2023/07/16 03:32:09;;;;;;;11.40;9.90;;;;;;;;;;8219110;28;20058;-94
2023/07/16 03:36:15;;;;;;;13.27;9.95;;;;;;;;;;8215027;28;20047;-93
2023/07/16 03:40:20;;;;;;;11.32;9.18;;;;;;;;;;8214169;28;20134;-93
2023/07/16 03:44:26;;;;;;;12.82;9.40;;;;;;;;;;8218227;28;20097;-94
2023/07/16 06:05:11;;;;;;;5.38;3.67;;;;;;;;;;9484118;23;20046;-95
2023/07/16 06:09:14;;;;;;;6.50;3.78;;;;;;;;;;8356240;28;20053;-90
2023/07/16 06:13:16;;;;;;;6.18;3.85;;;;;;;;;;8331715;28;20057;-87
2023/07/16 06:17:19;;;;;;;4.93;3.83;;;;;;;;;;8334372;28;20061;-96
2023/07/16 06:21:24;;;;;;;4.70;3.42;;;;;;;;;;8327554;28;20050;-94
2023/07/16 06:25:26;;;;;;;5.40;3.20;;;;;;;;;;8324322;28;20537;-87
2023/07/16 06:29:29;;;;;;;5.15;3.55;;;;;;;;;;8334790;28;20571;-92
2023/07/16 06:33:32;;;;;;;5.00;3.40;;;;;;;;;;8335533;28;20144;-93
2023/07/16 06:37:36;;;;;;;4.72;3.28;;;;;;;;;;8356417;28;20596;-89
2023/07/16 06:41:39;;;;;;;4.40;3.33;;;;;;;;;;8346979;28;20053;-86
2023/07/16 06:45:42;;;;;;;6.43;3.58;;;;;;;;;;8350208;28;20052;-86
2023/07/16 06:55:16;;;;;;;14.90;3.75;;;;;;;;;;8257074;28;20053;-86
2023/07/16 07:20:18;;;;;;;7.25;3.50;;;;;;;;;;8238894;28;20095;-95
2023/07/16 07:24:22;;;;;;;3.72;2.88;;;;;;;;;;8239796;28;20415;-93
2023/07/16 07:28:25;;;;;;;5.80;3.00;;;;;;;;;;8242762;28;20114;-90
2023/07/16 07:32:42;;;;;;;3.70;2.88;;;;;;;;;;8243510;28;20130;-91
2023/07/16 07:37:44;;;;;;;9.68;3.00;;;;;;;;;;8256992;28;20082;-88
2023/07/16 07:52:31;;;;;;;4.60;3.20;;;;;;;;;;8217645;28;20101;-88
2023/07/16 08:01:13;;;;;;;7.32;3.60;;;;;;;;;;9542554;23;20141;-90
2023/07/16 08:05:16;;;;;;;4.57;3.40;;;;;;;;;;8251080;28;20051;-88
2023/07/16 08:09:19;;;;;;;4.57;3.67;;;;;;;;;;8255783;28;20144;-91
2023/07/16 08:22:40;;;;;;;6.78;4.05;;;;;;;;;;8777993;23;20073;-90
2023/07/16 08:52:27;;;;;;;5.20;3.85;;;;;;;;;;8536605;23;2890133;-93
2023/07/16 08:56:39;;;;;;;7.47;4.13;;;;;;;;;;8260504;28;20050;-90
2023/07/16 09:00:45;;;;;;;7.30;4.30;;;;;;;;;;8271645;28;20085;-89
2023/07/16 09:04:55;;;;;;;5.65;4.35;;;;;;;;;;8263735;28;20065;-88
2023/07/16 09:09:00;;;;;;;5.20;3.92;;;;;;;;;;8263840;28;20054;-95
2023/07/16 09:17:31;;;;;;;6.50;4.45;;;;;;;;;;8266200;28;20061;-90
2023/07/16 09:21:38;;;;;;;5.38;4.20;;;;;;;;;;8254096;28;20054;-86
2023/07/16 09:25:45;;;;;;;5.70;4.30;;;;;;;;;;8258391;28;20120;-87
2023/07/16 09:29:48;;;;;;;9.75;4.70;;;;;;;;;;8284392;28;20062;-87
2023/07/16 09:33:54;;;;;;;9.43;4.75;;;;;;;;;;8278772;28;20030;-90
2023/07/16 09:38:02;;;;;;;5.60;4.10;;;;;;;;;;8304610;28;20045;-87
2023/07/16 09:42:08;;;;;;;8.07;4.80;;;;;;;;;;8305480;28;20031;-87
2023/07/16 09:46:12;;;;;;;7.80;4.43;;;;;;;;;;8299215;28;20043;-85
2023/07/16 09:50:15;;;;;;;8.05;5.25;;;;;;;;;;8295320;28;20051;-91
2023/07/16 09:54:18;;;;;;;8.20;4.55;;;;;;;;;;8266762;28;20133;-89
2023/07/16 09:58:37;;;;;;;7.93;4.85;;;;;;;;;;8274275;28;20058;-88
2023/07/16 10:02:43;;;;;;;;;;;;;;;;;;8255192;28;20434;-86
2023/07/16 10:07:00;;;;;;;6.30;4.90;;;;;;;;;;8257391;28;20388;-94
2023/07/16 10:11:05;;;;;;;8.88;5.05;;;;;;;;;;8248350;28;20049;-88
2023/07/16 10:15:13;;;;;;;7.07;5.15;;;;;;;;;;8233759;28;20145;-91
2023/07/16 10:19:24;;;;;;;7.70;5.07;;;;;;;;;;8262256;28;20445;-88
2023/07/16 10:23:41;;;;;;;6.47;4.90;;;;;;;;;;8258333;28;20054;-92
2023/07/16 10:33:06;;;;;;;9.32;4.65;;;;;;;;;;8077206;29;20101;-89
2023/07/16 10:57:40;;;;;;;6.28;4.70;;;;;;;;;;8091250;29;20092;-88
2023/07/16 11:01:44;;;;;;;8.70;4.70;;;;;;;;;;8139755;29;20492;-91
2023/07/16 11:59:19;;;;;;;5.00;3.67;;;;;;;;;;8229619;28;20108;-93
2023/07/16 12:03:38;;;;;;;5.82;3.90;;;;;;;;;;8252400;28;20054;-93
2023/07/16 13:23:45;;;;;;;4.93;3.05;;;;;;;;;;9071731;23;20055;-87
2023/07/16 13:27:58;;;;;;;6.88;3.03;;;;;;;;;;8295300;28;20113;-92
2023/07/16 13:32:12;;;;;;;5.47;3.10;;;;;;;;;;8291986;28;20046;-91
2023/07/16 13:36:16;;;;;;;5.15;2.83;;;;;;;;;;8285430;28;20546;-91
2023/07/16 13:40:26;;;;;;;3.85;2.85;;;;;;;;;;8301289;28;20070;-95
2023/07/16 13:44:30;;;;;;;6.00;3.00;;;;;;;;;;8278467;28;20061;-89
2023/07/16 13:48:38;;;;;;;4.65;3.33;;;;;;;;;;8284729;28;20489;-93
2023/07/16 13:52:44;;;;;;;4.30;3.10;;;;;;;;;;8285012;28;20058;-93
2023/07/16 13:56:50;;;;;;;8.25;3.10;;;;;;;;;;8272324;28;20088;-92
2023/07/16 14:00:57;;;;;;;6.13;3.08;;;;;;;;;;8284660;28;20057;-94
2023/07/16 14:21:57;;;;;;;4.25;2.92;;;;;;;;;;8289729;23;20055;-90
2023/07/16 14:26:03;;;;;;;3.55;2.90;;;;;;;;;;8258185;28;20149;-91
2023/07/16 14:30:10;;;;;;;6.13;3.22;;;;;;;;;;8243524;28;20051;-93
2023/07/16 14:34:17;;;;;;;4.78;3.08;;;;;;;;;;8253463;28;20054;-92
2023/07/16 15:07:54;;;;;;;5.22;3.22;;;;;;;;;;8690847;23;20038;-91
2023/07/16 15:11:57;;;;;;;8.73;3.38;;;;;;;;;;8260488;28;20130;-87
2023/07/16 15:16:02;;;;;;;4.22;3.20;;;;;;;;;;8266435;28;20050;-87
2023/07/16 15:20:09;;;;;;;6.28;2.97;;;;;;;;;;8266371;28;20062;-87
2023/07/16 15:24:13;;;;;;;4.57;3.30;;;;;;;;;;8265687;28;20081;-87
2023/07/16 15:28:17;;;;;;;3.72;3.10;;;;;;;;;;8264766;28;20402;-92
2023/07/16 15:32:20;;;;;;;5.72;3.30;;;;;;;;;;8248691;28;20050;-91
2023/07/16 15:36:26;;;;;;;6.25;3.80;;;;;;;;;;8265720;28;20046;-91
2023/07/16 15:40:34;;;;;;;5.63;3.17;;;;;;;;;;8265738;28;20482;-92
2023/07/16 16:38:04;;;;;;;5.10;3.70;;;;;;;;;;10135275;23;20010;-90
2023/07/16 16:42:10;;;;;;;8.18;3.80;;;;;;;;;;8155061;29;20504;-89
2023/07/16 16:46:16;;;;;;;5.85;4.00;;;;;;;;;;8177275;29;20413;-91
2023/07/16 16:50:22;;;;;;;6.47;3.92;;;;;;;;;;8166816;29;20068;-89
2023/07/16 16:54:31;;;;;;;6.60;4.30;;;;;;;;;;8151414;29;20062;-86
2023/07/16 16:58:37;;;;;;;5.82;4.57;;;;;;;;;;8150846;29;20570;-90
2023/07/16 17:02:42;;;;;;;14.65;8.90;;;;;;;;;;8167043;29;20418;-89
2023/07/16 17:06:48;;;;;;;12.65;11.35;;;;;;;;;;8173650;28;20047;-89
2023/07/16 17:10:57;;;;;;;10.85;9.23;;;;;;;;;;8182533;28;20032;-89
2023/07/16 17:15:04;;;;;;;9.65;6.80;;;;;;;;;;8207761;28;20051;-83
2023/07/16 17:19:11;;;;;;;7.93;5.53;;;;;;;;;;8194011;29;20058;-85
2023/07/16 17:23:18;;;;;;;5.72;4.78;;;;;;;;;;8194414;29;20545;-85
2023/07/16 17:27:26;;;;;;;7.47;4.65;;;;;;;;;;8200396;28;20059;-86
2023/07/16 17:35:37;;;;;;;8.07;4.97;;;;;;;;;;8250215;28;20121;-89
2023/07/16 17:39:40;;;;;;;8.27;5.47;;;;;;;;;;8246066;28;20055;-90
2023/07/16 17:47:55;;;;;;;15.38;9.30;;;;;;;;;;10240417;23;20036;-88
2023/07/16 17:51:59;;;;;;;19.25;9.85;;;;;;;;;;8267690;28;20299;-90
2023/07/16 17:56:03;;;;;;;12.98;8.70;;;;;;;;;;8261091;28;20066;-90
2023/07/16 18:00:08;;;;;;;23.88;14.43;;;;;;;;;;8263952;28;20050;-90
2023/07/16 18:04:13;;;;;;;14.50;9.30;;;;;;;;;;8265649;28;20489;-90
2023/07/16 18:08:16;;;;;;;6.43;3.70;;;;;;;;;;8255259;28;20077;-90
2023/07/16 19:26:15;;;;;;;7.28;4.20;;;;;;;;;;9442074;23;20438;-83
2023/07/16 19:30:19;;;;;;;9.48;4.65;;;;;;;;;;8237159;28;20526;-87
2023/07/16 19:34:25;;;;;;;13.80;5.10;;;;;;;;;;8238261;28;20131;-85
2023/07/16 19:38:32;;;;;;;10.18;5.60;;;;;;;;;;8241312;28;20475;-88
2023/07/16 19:42:40;;;;;;;10.20;5.88;;;;;;;;;;8244437;28;20062;-85
2023/07/16 19:46:47;;;;;;;8.15;5.57;;;;;;;;;;8256505;28;20082;-86
2023/07/16 19:50:53;;;;;;;9.25;5.28;;;;;;;;;;8256737;28;20058;-85
2023/07/16 19:55:01;;;;;;;8.32;5.45;;;;;;;;;;8234673;28;20069;-84
2023/07/16 20:11:44;;;;;;;12.02;6.50;;;;;;;;;;8346772;23;20055;-88
2023/07/16 20:15:49;;;;;;;9.20;5.32;;;;;;;;;;8228309;28;20055;-87
2023/07/16 20:19:53;;;;;;;7.20;4.97;;;;;;;;;;8232299;28;20105;-87
2023/07/16 20:23:56;;;;;;;10.57;5.80;;;;;;;;;;8231484;28;20050;-89
2023/07/16 20:28:03;;;;;;;12.57;5.43;;;;;;;;;;8232147;28;20131;-88
2023/07/16 20:32:08;;;;;;;7.97;5.28;;;;;;;;;;8232548;28;20121;-87
2023/07/16 20:36:12;;;;;;;12.13;5.95;;;;;;;;;;8231387;28;20110;-85
2023/07/16 20:40:17;;;;;;;8.38;5.15;;;;;;;;;;8231961;28;20054;-86
2023/07/16 20:44:23;;;;;;;8.05;5.30;;;;;;;;;;8231448;28;20502;-90
2023/07/16 20:48:27;;;;;;;9.18;5.60;;;;;;;;;;8232315;28;20059;-87
2023/07/16 20:52:31;;;;;;;7.22;5.47;;;;;;;;;;8232126;28;20134;-91
2023/07/16 20:56:38;;;;;;;10.02;5.80;;;;;;;;;;8215953;28;20051;-91
2023/07/16 21:00:48;;;;;;;11.27;5.57;;;;;;;;;;8215206;28;20070;-91
2023/07/16 21:04:54;;;;;;;9.57;6.25;;;;;;;;;;8214703;28;20063;-92
2023/07/16 21:09:00;;;;;;;9.02;5.85;;;;;;;;;;8215613;28;20110;-91
2023/07/16 21:13:06;;;;;;;9.35;5.85;;;;;;;;;;8233188;28;20399;-94
2023/07/16 21:17:11;;;;;;;9.18;5.28;;;;;;;;;;8230968;28;20061;-92
2023/07/16 21:21:17;;;;;;;8.80;5.38;;;;;;;;;;8231697;28;20137;-92
2023/07/16 21:25:23;;;;;;;8.68;5.50;;;;;;;;;;8218741;28;20054;-92
2023/07/16 21:29:28;;;;;;;7.57;5.20;;;;;;;;;;8238354;28;20101;-90
2023/07/16 21:33:34;;;;;;;9.05;6.13;;;;;;;;;;8223507;28;20167;-92
2023/07/16 21:37:40;;;;;;;12.15;6.22;;;;;;;;;;8216513;28;20055;-91
2023/07/16 21:41:46;;;;;;;10.50;6.32;;;;;;;;;;8216326;28;20050;-93
2023/07/16 21:45:49;;;;;;;9.38;6.20;;;;;;;;;;8216509;28;20086;-92
2023/07/16 21:49:58;;;;;;;8.13;6.38;;;;;;;;;;8218412;28;20055;-92
2023/07/16 21:54:05;;;;;;;13.57;7.40;;;;;;;;;;8214499;28;20078;-90
2023/07/16 21:58:08;;;;;;;11.20;6.72;;;;;;;;;;8214035;28;20085;-90
2023/07/16 22:02:14;;;;;;;10.05;8.10;;;;;;;;;;8213070;28;20086;-91
2023/07/16 22:06:22;;;;;;;8.75;6.82;;;;;;;;;;8214594;28;20054;-90
2023/07/16 22:10:29;;;;;;;9.63;7.00;;;;;;;;;;8232296;28;20071;-86
2023/07/16 22:14:35;;;;;;;9.32;7.25;;;;;;;;;;8217722;28;20070;-90
2023/07/16 22:18:39;;;;;;;11.10;7.28;;;;;;;;;;8213905;28;20109;-90
2023/07/16 22:22:46;;;;;;;12.63;7.18;;;;;;;;;;8211013;28;20408;-90
2023/07/16 22:26:51;;;;;;;9.05;7.55;;;;;;;;;;8210016;28;20119;-91
2023/07/16 22:30:57;;;;;;;9.30;7.25;;;;;;;;;;8215906;28;20418;-85
2023/07/16 22:35:06;;;;;;;8.10;7.28;;;;;;;;;;8204335;28;20139;-89
2023/07/16 22:39:16;;;;;;;11.77;7.70;;;;;;;;;;8216449;28;20490;-90
2023/07/16 22:43:21;;;;;;;14.20;7.97;;;;;;;;;;8218807;28;20226;-90
2023/07/16 22:47:24;;;;;;;9.55;7.75;;;;;;;;;;8205532;28;20058;-90
2023/07/16 22:51:28;;;;;;;12.00;7.93;;;;;;;;;;8219290;28;20149;-90
2023/07/16 22:55:36;;;;;;;10.38;7.90;;;;;;;;;;8216823;28;20070;-91
